sensor_id;sensor_type;location;lat;lon;timestamp;pressure;altitude;pressure_sealevel;temperature;humidity
50282;BME280;36176;51.506;10.272;2022-10-16T00:01:29;99085.53;;;15.27;nan
50282;BME280;36176;51.506;10.272;2022-10-16T00:04:00;99086.75;;;15.23;nan
50282;BME280;36176;51.506;10.272;2022-10-16T00:06:33;99083.44;;;15.19;nan
50282;BME280;36176;51.506;10.272;2022-10-16T00:09:00;99077.47;;;15.16;nan
50282;BME280;36176;51.506;10.272;2022-10-16T00:11:31;99081.09;;;15.15;nan
50282;BME280;36176;51.506;10.272;2022-10-16T00:14:06;99084.09;;;15.10;nan
50282;BME280;36176;51.506;10.272;2022-10-16T00:16:35;99086.13;;;15.06;nan
50282;BME280;36176;51.506;10.272;2022-10-16T00:19:03;99093.16;;;15.07;nan
50282;BME280;36176;51.506;10.272;2022-10-16T00:21:33;99098.41;;;15.09;nan
50282;BME280;36176;51.506;10.272;2022-10-16T00:24:07;99098.59;;;15.06;nan
50282;BME280;36176;51.506;10.272;2022-10-16T00:26:36;99103.09;;;15.05;nan
50282;BME280;36176;51.506;10.272;2022-10-16T00:29:04;99105.44;;;15.10;nan
50282;BME280;36176;51.506;10.272;2022-10-16T00:31:32;99114.41;;;15.09;nan
50282;BME280;36176;51.506;10.272;2022-10-16T00:33:59;99109.94;;;15.09;nan
50282;BME280;36176;51.506;10.272;2022-10-16T00:36:30;99117.84;;;15.11;nan
50282;BME280;36176;51.506;10.272;2022-10-16T00:38:59;99118.78;;;15.10;nan
50282;BME280;36176;51.506;10.272;2022-10-16T00:41:29;99109.81;;;15.11;nan
50282;BME280;36176;51.506;10.272;2022-10-16T00:43:59;99123.78;;;15.15;nan
50282;BME280;36176;51.506;10.272;2022-10-16T00:46:38;99127.19;;;15.17;nan
50282;BME280;36176;51.506;10.272;2022-10-16T00:49:11;99115.69;;;15.16;nan
50282;BME280;36176;51.506;10.272;2022-10-16T00:51:51;99115.44;;;15.19;nan
50282;BME280;36176;51.506;10.272;2022-10-16T00:54:26;99118.88;;;15.21;nan
50282;BME280;36176;51.506;10.272;2022-10-16T00:57:04;99118.63;;;15.24;nan
50282;BME280;36176;51.506;10.272;2022-10-16T00:59:38;99113.94;;;15.28;nan
50282;BME280;36176;51.506;10.272;2022-10-16T01:02:09;99113.81;;;15.29;nan
50282;BME280;36176;51.506;10.272;2022-10-16T01:04:42;99108.47;;;15.29;nan
50282;BME280;36176;51.506;10.272;2022-10-16T01:07:23;99101.56;;;15.27;nan
50282;BME280;36176;51.506;10.272;2022-10-16T01:10:07;99096.22;;;15.27;nan
50282;BME280;36176;51.506;10.272;2022-10-16T01:18:37;99107.31;;;15.34;nan
50282;BME280;36176;51.506;10.272;2022-10-16T01:21:16;99105.59;;;15.32;nan
50282;BME280;36176;51.506;10.272;2022-10-16T01:27:11;99108.16;;;15.34;nan
50282;BME280;36176;51.506;10.272;2022-10-16T01:29:50;99121.41;;;15.36;nan
50282;BME280;36176;51.506;10.272;2022-10-16T01:32:32;99117.53;;;15.40;nan
50282;BME280;36176;51.506;10.272;2022-10-16T01:35:11;99120.72;;;15.45;nan
50282;BME280;36176;51.506;10.272;2022-10-16T01:40:20;99128.84;;;15.43;nan
50282;BME280;36176;51.506;10.272;2022-10-16T01:42:56;99136.00;;;15.43;nan
50282;BME280;36176;51.506;10.272;2022-10-16T01:45:30;99128.00;;;15.43;nan
50282;BME280;36176;51.506;10.272;2022-10-16T01:48:06;99131.75;;;15.40;nan
50282;BME280;36176;51.506;10.272;2022-10-16T01:50:38;99126.50;;;15.39;nan
50282;BME280;36176;51.506;10.272;2022-10-16T01:53:12;99128.22;;;15.40;nan
50282;BME280;36176;51.506;10.272;2022-10-16T01:55:46;99133.75;;;15.37;nan
50282;BME280;36176;51.506;10.272;2022-10-16T01:58:16;99131.22;;;15.35;nan
50282;BME280;36176;51.506;10.272;2022-10-16T02:00:46;99135.69;;;15.35;nan
50282;BME280;36176;51.506;10.272;2022-10-16T02:03:17;99140.19;;;15.34;nan
50282;BME280;36176;51.506;10.272;2022-10-16T02:05:56;99146.38;;;15.35;nan
50282;BME280;36176;51.506;10.272;2022-10-16T02:08:25;99138.50;;;15.33;nan
50282;BME280;36176;51.506;10.272;2022-10-16T02:10:56;99142.97;;;15.32;nan
50282;BME280;36176;51.506;10.272;2022-10-16T02:13:32;99138.50;;;15.33;nan
50282;BME280;36176;51.506;10.272;2022-10-16T02:16:02;99137.50;;;15.34;nan
50282;BME280;36176;51.506;10.272;2022-10-16T02:18:30;99142.75;;;15.36;nan
50282;BME280;36176;51.506;10.272;2022-10-16T02:27:05;99153.19;;;15.39;nan
50282;BME280;36176;51.506;10.272;2022-10-16T02:29:42;99138.03;;;15.39;nan
50282;BME280;36176;51.506;10.272;2022-10-16T02:32:17;99145.69;;;15.44;nan
50282;BME280;36176;51.506;10.272;2022-10-16T02:34:48;99147.94;;;15.50;nan
50282;BME280;36176;51.506;10.272;2022-10-16T02:37:17;99156.81;;;15.50;nan
50282;BME280;36176;51.506;10.272;2022-10-16T02:39:45;99165.66;;;15.51;nan
50282;BME280;36176;51.506;10.272;2022-10-16T02:42:14;99160.31;;;15.51;nan
50282;BME280;36176;51.506;10.272;2022-10-16T02:44:45;99155.09;;;15.49;nan
50282;BME280;36176;51.506;10.272;2022-10-16T02:47:13;99157.88;;;15.48;nan
50282;BME280;36176;51.506;10.272;2022-10-16T02:49:41;99155.22;;;15.48;nan
50282;BME280;36176;51.506;10.272;2022-10-16T02:52:08;99154.47;;;15.46;nan
50282;BME280;36176;51.506;10.272;2022-10-16T02:54:35;99151.91;;;15.44;nan
50282;BME280;36176;51.506;10.272;2022-10-16T02:57:03;99144.75;;;15.45;nan
50282;BME280;36176;51.506;10.272;2022-10-16T02:59:30;99147.19;;;15.48;nan
50282;BME280;36176;51.506;10.272;2022-10-16T03:01:57;99148.28;;;15.45;nan
50282;BME280;36176;51.506;10.272;2022-10-16T03:04:27;99157.03;;;15.47;nan
50282;BME280;36176;51.506;10.272;2022-10-16T03:06:54;99166.63;;;15.50;nan
50282;BME280;36176;51.506;10.272;2022-10-16T03:09:22;99165.78;;;15.49;nan
50282;BME280;36176;51.506;10.272;2022-10-16T03:11:51;99160.78;;;15.45;nan
50282;BME280;36176;51.506;10.272;2022-10-16T03:14:23;99166.53;;;15.39;nan
50282;BME280;36176;51.506;10.272;2022-10-16T03:16:50;99163.34;;;15.34;nan
50282;BME280;36176;51.506;10.272;2022-10-16T03:19:18;99160.41;;;15.25;nan
50282;BME280;36176;51.506;10.272;2022-10-16T03:21:49;99163.81;;;15.15;nan
50282;BME280;36176;51.506;10.272;2022-10-16T03:24:30;99159.88;;;15.07;nan
50282;BME280;36176;51.506;10.272;2022-10-16T03:26:58;99167.34;;;15.02;nan
50282;BME280;36176;51.506;10.272;2022-10-16T03:29:30;99157.97;;;14.97;nan
50282;BME280;36176;51.506;10.272;2022-10-16T03:32:03;99161.06;;;14.91;nan
50282;BME280;36176;51.506;10.272;2022-10-16T03:34:35;99156.03;;;14.86;nan
50282;BME280;36176;51.506;10.272;2022-10-16T03:37:03;99158.19;;;14.81;nan
50282;BME280;36176;51.506;10.272;2022-10-16T03:39:31;99173.66;;;14.76;nan
50282;BME280;36176;51.506;10.272;2022-10-16T03:41:58;99181.00;;;14.72;nan
50282;BME280;36176;51.506;10.272;2022-10-16T03:44:26;99178.56;;;14.69;nan
50282;BME280;36176;51.506;10.272;2022-10-16T03:46:56;99179.84;;;14.63;nan
50282;BME280;36176;51.506;10.272;2022-10-16T03:49:27;99188.25;;;14.57;nan
50282;BME280;36176;51.506;10.272;2022-10-16T03:52:01;99185.84;;;14.53;nan
50282;BME280;36176;51.506;10.272;2022-10-16T03:54:35;99186.81;;;14.52;nan
50282;BME280;36176;51.506;10.272;2022-10-16T03:57:07;99199.41;;;14.50;nan
50282;BME280;36176;51.506;10.272;2022-10-16T03:59:41;99195.59;;;14.54;nan
50282;BME280;36176;51.506;10.272;2022-10-16T04:02:20;99200.94;;;14.54;nan
50282;BME280;36176;51.506;10.272;2022-10-16T04:04:58;99201.00;;;14.52;nan
50282;BME280;36176;51.506;10.272;2022-10-16T04:07:25;99202.91;;;14.50;nan
50282;BME280;36176;51.506;10.272;2022-10-16T04:09:53;99204.06;;;14.46;nan
50282;BME280;36176;51.506;10.272;2022-10-16T04:12:26;99203.75;;;14.38;nan
50282;BME280;36176;51.506;10.272;2022-10-16T04:14:53;99213.94;;;14.31;nan
50282;BME280;36176;51.506;10.272;2022-10-16T04:17:21;99212.66;;;14.24;nan
50282;BME280;36176;51.506;10.272;2022-10-16T04:19:48;99209.94;;;14.11;nan
50282;BME280;36176;51.506;10.272;2022-10-16T04:22:15;99206.84;;;14.04;nan
50282;BME280;36176;51.506;10.272;2022-10-16T04:24:43;99206.19;;;14.01;nan
50282;BME280;36176;51.506;10.272;2022-10-16T04:27:20;99217.25;;;13.95;nan
50282;BME280;36176;51.506;10.272;2022-10-16T04:29:48;99213.16;;;13.89;nan
50282;BME280;36176;51.506;10.272;2022-10-16T04:32:27;99216.44;;;13.80;nan
50282;BME280;36176;51.506;10.272;2022-10-16T04:34:54;99210.34;;;13.78;nan
50282;BME280;36176;51.506;10.272;2022-10-16T04:37:25;99216.81;;;13.74;nan
50282;BME280;36176;51.506;10.272;2022-10-16T04:39:53;99226.91;;;13.69;nan
50282;BME280;36176;51.506;10.272;2022-10-16T04:42:21;99221.69;;;13.67;nan
50282;BME280;36176;51.506;10.272;2022-10-16T04:44:48;99223.69;;;13.64;nan
50282;BME280;36176;51.506;10.272;2022-10-16T04:47:15;99226.56;;;13.60;nan
50282;BME280;36176;51.506;10.272;2022-10-16T04:49:42;99220.47;;;13.58;nan
50282;BME280;36176;51.506;10.272;2022-10-16T04:52:10;99227.47;;;13.59;nan
50282;BME280;36176;51.506;10.272;2022-10-16T04:54:37;99216.06;;;13.57;nan
50282;BME280;36176;51.506;10.272;2022-10-16T04:57:04;99224.19;;;13.56;nan
50282;BME280;36176;51.506;10.272;2022-10-16T04:59:31;99234.53;;;13.60;nan
50282;BME280;36176;51.506;10.272;2022-10-16T05:01:59;99234.63;;;13.59;nan
50282;BME280;36176;51.506;10.272;2022-10-16T05:04:26;99229.59;;;13.54;nan
50282;BME280;36176;51.506;10.272;2022-10-16T05:06:53;99240.53;;;13.50;nan
50282;BME280;36176;51.506;10.272;2022-10-16T05:09:20;99239.03;;;13.46;nan
50282;BME280;36176;51.506;10.272;2022-10-16T05:11:48;99231.22;;;13.43;nan
50282;BME280;36176;51.506;10.272;2022-10-16T05:14:15;99223.34;;;13.41;nan
50282;BME280;36176;51.506;10.272;2022-10-16T05:16:42;99221.63;;;13.40;nan
50282;BME280;36176;51.506;10.272;2022-10-16T05:19:17;99220.78;;;13.39;nan
50282;BME280;36176;51.506;10.272;2022-10-16T05:22:00;99219.81;;;13.40;nan
50282;BME280;36176;51.506;10.272;2022-10-16T05:31:51;99223.69;;;14.02;96.06
50282;BME280;36176;51.506;10.272;2022-10-16T05:34:21;99229.31;;;13.97;95.94
50282;BME280;36176;51.506;10.272;2022-10-16T05:36:50;99216.19;;;13.94;95.65
50282;BME280;36176;51.506;10.272;2022-10-16T05:39:18;99199.75;;;13.88;95.58
50282;BME280;36176;51.506;10.272;2022-10-16T05:41:46;99182.47;;;13.80;95.95
50282;BME280;36176;51.506;10.272;2022-10-16T05:44:13;99179.81;;;13.80;96.37
50282;BME280;36176;51.506;10.272;2022-10-16T05:46:40;99197.31;;;13.85;96.31
50282;BME280;36176;51.506;10.272;2022-10-16T05:49:07;99198.91;;;13.87;96.04
50282;BME280;36176;51.506;10.272;2022-10-16T05:51:34;99226.47;;;13.86;96.23
50282;BME280;36176;51.506;10.272;2022-10-16T05:54:01;99232.69;;;13.87;96.38
50282;BME280;36176;51.506;10.272;2022-10-16T05:56:28;99239.78;;;13.86;95.89
50282;BME280;36176;51.506;10.272;2022-10-16T05:58:56;99242.66;;;13.83;95.91
50282;BME280;36176;51.506;10.272;2022-10-16T06:01:22;99255.34;;;13.79;95.80
50282;BME280;36176;51.506;10.272;2022-10-16T06:03:51;99259.34;;;13.72;95.96
50282;BME280;36176;51.506;10.272;2022-10-16T06:06:24;99266.84;;;13.66;95.81
50282;BME280;36176;51.506;10.272;2022-10-16T06:08:53;99278.63;;;13.61;95.92
50282;BME280;36176;51.506;10.272;2022-10-16T06:11:25;99290.41;;;13.57;95.73
50282;BME280;36176;51.506;10.272;2022-10-16T06:13:54;99272.66;;;13.58;95.98
50282;BME280;36176;51.506;10.272;2022-10-16T06:16:24;99284.81;;;13.62;96.38
50282;BME280;36176;51.506;10.272;2022-10-16T06:18:53;99283.59;;;13.68;96.43
50282;BME280;36176;51.506;10.272;2022-10-16T06:21:23;99285.09;;;13.72;96.38
50282;BME280;36176;51.506;10.272;2022-10-16T06:23:54;99284.72;;;13.78;96.36
50282;BME280;36176;51.506;10.272;2022-10-16T06:26:25;99284.63;;;13.79;96.46
50282;BME280;36176;51.506;10.272;2022-10-16T06:28:57;99298.78;;;13.80;96.37
50282;BME280;36176;51.506;10.272;2022-10-16T06:31:26;99304.97;;;13.80;96.56
50282;BME280;36176;51.506;10.272;2022-10-16T06:33:56;99315.59;;;13.80;96.87
50282;BME280;36176;51.506;10.272;2022-10-16T06:36:25;99313.50;;;13.86;97.00
50282;BME280;36176;51.506;10.272;2022-10-16T06:38:53;99309.34;;;13.96;96.88
50282;BME280;36176;51.506;10.272;2022-10-16T06:41:22;99313.97;;;14.07;97.01
50282;BME280;36176;51.506;10.272;2022-10-16T06:43:49;99318.91;;;14.13;96.95
50282;BME280;36176;51.506;10.272;2022-10-16T06:46:20;99325.63;;;14.18;96.77
50282;BME280;36176;51.506;10.272;2022-10-16T06:48:48;99333.13;;;14.26;96.78
50282;BME280;36176;51.506;10.272;2022-10-16T06:51:20;99344.91;;;14.36;96.39
50282;BME280;36176;51.506;10.272;2022-10-16T06:53:49;99359.66;;;14.42;95.95
50282;BME280;36176;51.506;10.272;2022-10-16T06:56:32;99371.50;;;14.51;95.80
50282;BME280;36176;51.506;10.272;2022-10-16T06:59:00;99363.81;;;14.60;95.35
50282;BME280;36176;51.506;10.272;2022-10-16T07:01:28;99354.44;;;14.67;95.70
50282;BME280;36176;51.506;10.272;2022-10-16T07:03:56;99345.19;;;14.73;95.34
50282;BME280;36176;51.506;10.272;2022-10-16T07:06:24;99351.63;;;14.83;95.26
50282;BME280;36176;51.506;10.272;2022-10-16T07:08:52;99366.19;;;14.92;95.73
50282;BME280;36176;51.506;10.272;2022-10-16T07:11:21;99372.50;;;15.04;95.50
50282;BME280;36176;51.506;10.272;2022-10-16T07:13:49;99384.47;;;15.11;95.32
50282;BME280;36176;51.506;10.272;2022-10-16T07:16:25;99392.91;;;15.18;94.48
50282;BME280;36176;51.506;10.272;2022-10-16T07:18:54;99396.03;;;15.24;93.82
50282;BME280;36176;51.506;10.272;2022-10-16T07:21:28;99404.25;;;15.34;93.80
50282;BME280;36176;51.506;10.272;2022-10-16T07:23:58;99394.69;;;15.44;93.79
50282;BME280;36176;51.506;10.272;2022-10-16T07:26:27;99391.16;;;15.57;93.08
50282;BME280;36176;51.506;10.272;2022-10-16T07:28:54;99394.38;;;15.62;91.88
50282;BME280;36176;51.506;10.272;2022-10-16T07:31:23;99403.97;;;15.64;91.20
50282;BME280;36176;51.506;10.272;2022-10-16T07:33:51;99395.88;;;15.66;90.66
50282;BME280;36176;51.506;10.272;2022-10-16T07:36:20;99394.91;;;15.67;90.55
50282;BME280;36176;51.506;10.272;2022-10-16T07:38:48;99400.34;;;15.65;89.90
50282;BME280;36176;51.506;10.272;2022-10-16T07:41:21;99407.59;;;15.63;89.13
50282;BME280;36176;51.506;10.272;2022-10-16T07:43:53;99411.25;;;15.62;88.94
50282;BME280;36176;51.506;10.272;2022-10-16T07:46:22;99411.34;;;15.61;89.18
50282;BME280;36176;51.506;10.272;2022-10-16T07:48:49;99427.56;;;15.58;89.04
50282;BME280;36176;51.506;10.272;2022-10-16T07:51:19;99428.56;;;15.57;88.93
50282;BME280;36176;51.506;10.272;2022-10-16T07:53:48;99426.72;;;15.57;88.16
50282;BME280;36176;51.506;10.272;2022-10-16T07:56:16;99430.03;;;15.61;87.63
50282;BME280;36176;51.506;10.272;2022-10-16T07:58:44;99438.47;;;15.67;86.81
50282;BME280;36176;51.506;10.272;2022-10-16T08:01:15;99430.19;;;15.72;86.42
50282;BME280;36176;51.506;10.272;2022-10-16T08:03:45;99431.38;;;15.81;86.64
50282;BME280;36176;51.506;10.272;2022-10-16T08:06:14;99434.81;;;15.83;85.75
50282;BME280;36176;51.506;10.272;2022-10-16T08:08:42;99431.91;;;15.86;86.24
50282;BME280;36176;51.506;10.272;2022-10-16T08:11:10;99431.59;;;15.90;85.58
50282;BME280;36176;51.506;10.272;2022-10-16T08:13:37;99439.16;;;15.97;85.38
50282;BME280;36176;51.506;10.272;2022-10-16T08:16:04;99446.97;;;16.00;84.68
50282;BME280;36176;51.506;10.272;2022-10-16T08:18:39;99454.78;;;16.03;85.77
50282;BME280;36176;51.506;10.272;2022-10-16T08:21:12;99446.44;;;16.07;83.19
50282;BME280;36176;51.506;10.272;2022-10-16T08:24:05;99448.47;;;16.16;82.79
50282;BME280;36176;51.506;10.272;2022-10-16T08:26:39;99462.75;;;16.41;82.79
50282;BME280;36176;51.506;10.272;2022-10-16T08:29:08;99454.97;;;16.75;82.07
50282;BME280;36176;51.506;10.272;2022-10-16T08:31:36;99464.53;;;17.03;79.98
50282;BME280;36176;51.506;10.272;2022-10-16T08:34:03;99460.38;;;17.23;78.56
50282;BME280;36176;51.506;10.272;2022-10-16T08:36:30;99490.81;;;17.33;77.52
50282;BME280;36176;51.506;10.272;2022-10-16T08:38:57;99496.31;;;17.32;76.75
50282;BME280;36176;51.506;10.272;2022-10-16T08:49:55;99501.78;;;17.30;75.92
50282;BME280;36176;51.506;10.272;2022-10-16T08:52:25;99495.50;;;17.42;75.56
50282;BME280;36176;51.506;10.272;2022-10-16T08:54:54;99491.63;;;17.47;72.92
50282;BME280;36176;51.506;10.272;2022-10-16T08:57:24;99509.22;;;17.62;74.05
50282;BME280;36176;51.506;10.272;2022-10-16T08:59:53;99500.03;;;17.77;73.07
50282;BME280;36176;51.506;10.272;2022-10-16T09:08:16;99529.56;;;17.64;72.42
50282;BME280;36176;51.506;10.272;2022-10-16T09:11:05;99523.03;;;17.44;72.30
50282;BME280;36176;51.506;10.272;2022-10-16T09:16:16;99520.94;;;17.37;73.16
50282;BME280;36176;51.506;10.272;2022-10-16T09:18:51;99521.53;;;17.40;73.92
50282;BME280;36176;51.506;10.272;2022-10-16T09:21:30;99528.47;;;17.32;72.48
50282;BME280;36176;51.506;10.272;2022-10-16T09:24:09;99526.72;;;17.31;74.07
50282;BME280;36176;51.506;10.272;2022-10-16T09:26:38;99530.66;;;17.38;74.17
50282;BME280;36176;51.506;10.272;2022-10-16T09:29:05;99538.69;;;17.38;73.36
50282;BME280;36176;51.506;10.272;2022-10-16T09:31:36;99541.00;;;17.31;74.32
50282;BME280;36176;51.506;10.272;2022-10-16T09:34:04;99547.72;;;17.37;74.53
50282;BME280;36176;51.506;10.272;2022-10-16T09:36:42;99549.88;;;17.32;73.79
50282;BME280;36176;51.506;10.272;2022-10-16T09:39:10;99551.63;;;17.20;74.33
50282;BME280;36176;51.506;10.272;2022-10-16T09:41:44;99545.88;;;17.13;73.71
50282;BME280;36176;51.506;10.272;2022-10-16T09:44:31;99550.63;;;16.97;73.62
50282;BME280;36176;51.506;10.272;2022-10-16T09:47:04;99545.88;;;17.13;74.64
50282;BME280;36176;51.506;10.272;2022-10-16T09:49:31;99544.78;;;17.64;74.48
50282;BME280;36176;51.506;10.272;2022-10-16T09:52:13;99548.41;;;18.34;70.57
50282;BME280;36176;51.506;10.272;2022-10-16T09:57:25;99538.88;;;19.74;68.21
50282;BME280;36176;51.506;10.272;2022-10-16T09:59:58;99538.56;;;20.10;65.20
50282;BME280;36176;51.506;10.272;2022-10-16T10:02:48;99531.16;;;20.02;63.41
50282;BME280;36176;51.506;10.272;2022-10-16T10:08:12;99546.94;;;19.20;63.38
50282;BME280;36176;51.506;10.272;2022-10-16T10:10:43;99547.59;;;19.01;65.69
50282;BME280;36176;51.506;10.272;2022-10-16T10:13:19;99549.91;;;19.17;67.10
50282;BME280;36176;51.506;10.272;2022-10-16T10:15:47;99546.34;;;19.71;66.35
50282;BME280;36176;51.506;10.272;2022-10-16T10:18:19;99548.78;;;19.95;65.10
50282;BME280;36176;51.506;10.272;2022-10-16T10:20:59;99558.84;;;20.45;63.95
50282;BME280;36176;51.506;10.272;2022-10-16T10:23:28;99549.91;;;20.96;61.50
50282;BME280;36176;51.506;10.272;2022-10-16T10:26:14;99548.94;;;21.57;61.33
50282;BME280;36176;51.506;10.272;2022-10-16T10:37:04;99565.41;;;22.32;55.40
50282;BME280;36176;51.506;10.272;2022-10-16T10:39:41;99566.09;;;22.14;55.66
50282;BME280;36176;51.506;10.272;2022-10-16T10:45:01;99570.25;;;21.79;56.79
50282;BME280;36176;51.506;10.272;2022-10-16T10:47:41;99574.19;;;21.65;56.64
50282;BME280;36176;51.506;10.272;2022-10-16T11:01:00;99574.91;;;22.06;55.08
50282;BME280;36176;51.506;10.272;2022-10-16T11:06:18;99572.50;;;21.94;53.67
50282;BME280;36176;51.506;10.272;2022-10-16T11:14:31;99577.19;;;22.01;54.05
50282;BME280;36176;51.506;10.272;2022-10-16T11:17:10;99573.63;;;22.30;53.21
50282;BME280;36176;51.506;10.272;2022-10-16T11:19:54;99574.72;;;22.47;53.95
50282;BME280;36176;51.506;10.272;2022-10-16T11:22:36;99581.91;;;22.66;54.14
50282;BME280;36176;51.506;10.272;2022-10-16T11:25:26;99574.06;;;22.82;52.00
50282;BME280;36176;51.506;10.272;2022-10-16T11:28:03;99586.72;;;22.72;50.68
50282;BME280;36176;51.506;10.272;2022-10-16T11:30:57;99581.78;;;22.67;49.00
50282;BME280;36176;51.506;10.272;2022-10-16T11:36:00;99580.38;;;22.63;50.29
50282;BME280;36176;51.506;10.272;2022-10-16T11:41:27;99571.13;;;22.66;51.38
50282;BME280;36176;51.506;10.272;2022-10-16T11:46:57;99574.25;;;22.61;49.64
50282;BME280;36176;51.506;10.272;2022-10-16T11:49:50;99577.06;;;22.69;48.54
50282;BME280;36176;51.506;10.272;2022-10-16T11:52:33;99581.97;;;22.46;46.55
50282;BME280;36176;51.506;10.272;2022-10-16T11:55:14;99583.00;;;22.16;47.24
50282;BME280;36176;51.506;10.272;2022-10-16T11:57:50;99582.16;;;22.25;48.10
50282;BME280;36176;51.506;10.272;2022-10-16T12:06:14;99575.88;;;22.44;47.40
50282;BME280;36176;51.506;10.272;2022-10-16T12:08:47;99576.72;;;22.45;46.86
50282;BME280;36176;51.506;10.272;2022-10-16T12:11:33;99570.09;;;22.29;47.42
50282;BME280;36176;51.506;10.272;2022-10-16T12:19:19;99564.41;;;22.80;47.10
50282;BME280;36176;51.506;10.272;2022-10-16T12:21:56;99569.75;;;22.89;46.61
50282;BME280;36176;51.506;10.272;2022-10-16T12:24:34;99572.53;;;22.98;45.41
50282;BME280;36176;51.506;10.272;2022-10-16T12:27:04;99579.53;;;23.00;45.21
50282;BME280;36176;51.506;10.272;2022-10-16T12:29:38;99586.78;;;23.00;44.88
50282;BME280;36176;51.506;10.272;2022-10-16T12:35:22;99581.09;;;23.03;45.33
50282;BME280;36176;51.506;10.272;2022-10-16T12:37:50;99585.78;;;23.01;44.86
50282;BME280;36176;51.506;10.272;2022-10-16T12:40:32;99578.84;;;22.88;46.44
50282;BME280;36176;51.506;10.272;2022-10-16T12:43:36;99574.00;;;22.92;45.78
50282;BME280;36176;51.506;10.272;2022-10-16T12:46:03;99581.03;;;23.12;46.42
50282;BME280;36176;51.506;10.272;2022-10-16T12:48:38;99576.50;;;23.13;45.77
50282;BME280;36176;51.506;10.272;2022-10-16T12:54:04;99574.53;;;23.05;44.99
50282;BME280;36176;51.506;10.272;2022-10-16T12:59:32;99576.53;;;22.93;45.97
50282;BME280;36176;51.506;10.272;2022-10-16T13:02:19;99579.69;;;22.89;46.12
50282;BME280;36176;51.506;10.272;2022-10-16T13:08:26;99586.53;;;22.83;44.63
50282;BME280;36176;51.506;10.272;2022-10-16T13:22:06;99609.13;;;22.16;47.46
50282;BME280;36176;51.506;10.272;2022-10-16T13:25:00;99606.44;;;22.06;46.69
50282;BME280;36176;51.506;10.272;2022-10-16T13:30:17;99617.03;;;21.49;48.84
50282;BME280;36176;51.506;10.272;2022-10-16T13:32:48;99614.34;;;21.18;48.57
50282;BME280;36176;51.506;10.272;2022-10-16T13:35:30;99622.50;;;20.97;50.26
50282;BME280;36176;51.506;10.272;2022-10-16T13:38:14;99626.41;;;20.84;50.77
50282;BME280;36176;51.506;10.272;2022-10-16T13:43:54;99627.72;;;20.68;52.33
50282;BME280;36176;51.506;10.272;2022-10-16T13:46:24;99631.16;;;20.70;52.03
50282;BME280;36176;51.506;10.272;2022-10-16T13:49:12;99634.69;;;20.71;52.05
50282;BME280;36176;51.506;10.272;2022-10-16T13:51:39;99633.72;;;20.72;52.08
50282;BME280;36176;51.506;10.272;2022-10-16T13:54:10;99630.31;;;20.70;51.65
50282;BME280;36176;51.506;10.272;2022-10-16T13:56:39;99622.34;;;20.68;51.53
50282;BME280;36176;51.506;10.272;2022-10-16T13:59:35;99637.09;;;20.64;51.79
50282;BME280;36176;51.506;10.272;2022-10-16T14:02:14;99640.16;;;20.59;51.77
50282;BME280;36176;51.506;10.272;2022-10-16T14:04:45;99632.47;;;20.55;52.92
50282;BME280;36176;51.506;10.272;2022-10-16T14:07:24;99644.34;;;20.52;53.06
50282;BME280;36176;51.506;10.272;2022-10-16T14:09:53;99633.38;;;20.44;52.02
50282;BME280;36176;51.506;10.272;2022-10-16T14:12:22;99636.66;;;20.27;52.09
50282;BME280;36176;51.506;10.272;2022-10-16T14:14:55;99639.78;;;20.11;52.32
50282;BME280;36176;51.506;10.272;2022-10-16T14:17:33;99652.28;;;20.01;53.28
50282;BME280;36176;51.506;10.272;2022-10-16T14:20:04;99639.88;;;19.88;54.87
50282;BME280;36176;51.506;10.272;2022-10-16T14:25:23;99649.91;;;19.86;54.13
50282;BME280;36176;51.506;10.272;2022-10-16T14:28:01;99653.69;;;19.84;54.22
50282;BME280;36176;51.506;10.272;2022-10-16T14:30:29;99654.19;;;19.77;54.95
50282;BME280;36176;51.506;10.272;2022-10-16T14:32:58;99654.72;;;19.71;54.56
50282;BME280;36176;51.506;10.272;2022-10-16T14:35:37;99659.59;;;19.66;54.74
50282;BME280;36176;51.506;10.272;2022-10-16T14:38:06;99660.34;;;19.57;55.60
50282;BME280;36176;51.506;10.272;2022-10-16T14:40:47;99662.41;;;19.53;55.80
50282;BME280;36176;51.506;10.272;2022-10-16T14:43:21;99669.75;;;19.51;56.05
50282;BME280;36176;51.506;10.272;2022-10-16T14:45:54;99669.88;;;19.50;57.20
50282;BME280;36176;51.506;10.272;2022-10-16T14:48:28;99666.56;;;19.46;57.39
50282;BME280;36176;51.506;10.272;2022-10-16T14:50:56;99673.66;;;19.47;56.35
50282;BME280;36176;51.506;10.272;2022-10-16T14:53:23;99666.72;;;19.45;56.63
50282;BME280;36176;51.506;10.272;2022-10-16T14:55:50;99670.88;;;19.38;58.32
50282;BME280;36176;51.506;10.272;2022-10-16T14:58:21;99667.56;;;19.34;57.60
50282;BME280;36176;51.506;10.272;2022-10-16T15:00:48;99664.66;;;19.37;58.81
50282;BME280;36176;51.506;10.272;2022-10-16T15:03:16;99660.34;;;19.34;58.46
50282;BME280;36176;51.506;10.272;2022-10-16T15:05:44;99669.13;;;19.37;58.67
50282;BME280;36176;51.506;10.272;2022-10-16T15:08:11;99668.41;;;19.34;58.95
50282;BME280;36176;51.506;10.272;2022-10-16T15:10:41;99664.03;;;19.33;60.17
50282;BME280;36176;51.506;10.272;2022-10-16T15:13:12;99667.56;;;19.34;60.47
50282;BME280;36176;51.506;10.272;2022-10-16T15:15:44;99667.69;;;19.32;60.82
50282;BME280;36176;51.506;10.272;2022-10-16T15:18:12;99671.50;;;19.30;60.59
50282;BME280;36176;51.506;10.272;2022-10-16T15:20:41;99671.50;;;19.30;60.76
50282;BME280;36176;51.506;10.272;2022-10-16T15:23:20;99658.91;;;19.30;60.27
50282;BME280;36176;51.506;10.272;2022-10-16T15:25:58;99663.28;;;19.31;61.37
50282;BME280;36176;51.506;10.272;2022-10-16T15:28:25;99665.97;;;19.31;61.34
50282;BME280;36176;51.506;10.272;2022-10-16T15:30:55;99668.81;;;19.30;61.32
50282;BME280;36176;51.506;10.272;2022-10-16T15:33:25;99676.00;;;19.29;60.61